Time;durP1;ratioP1;P1;durP2;ratioP2;P2;SDS_P1;SDS_P2;PMS_P1;PMS_P2;Temp;Humidity;BMP_temperature;BMP_pressure;BME280_temperature;BME280_humidity;BME280_pressure;Samples;Min_cycle;Max_cycle;Signal;HPM_P1;HPM_P2
2022/04/01 00:00:16;;;;;;;7.77;7.10;;;;;;;9.46;92.12;93178.53;4340882;32;20288;-65
2022/04/01 00:02:44;;;;;;;6.83;6.33;;;;;;;9.29;92.02;93170.91;4360014;32;20204;-66
2022/04/01 00:05:13;;;;;;;7.13;6.53;;;;;;;9.16;92.06;93169.41;4348955;32;20336;-66
2022/04/01 00:07:40;;;;;;;6.67;6.17;;;;;;;9.10;91.97;93170.78;4339699;33;20326;-66
2022/04/01 00:10:14;;;;;;;5.53;5.00;;;;;;;9.37;91.18;93166.56;4344900;32;20282;-63
2022/04/01 00:12:43;;;;;;;5.40;4.90;;;;;;;9.40;90.91;93171.94;4335430;33;20355;-65
2022/04/01 00:15:12;;;;;;;4.83;4.43;;;;;;;9.40;90.37;93171.19;4336412;32;20289;-66
2022/04/01 00:17:42;;;;;;;5.20;4.73;;;;;;;8.93;91.83;93174.47;4342407;32;20278;-66
2022/04/01 00:20:13;;;;;;;4.77;4.47;;;;;;;9.06;91.93;93172.53;4322785;32;20303;-65
2022/04/01 00:22:43;;;;;;;6.40;4.73;;;;;;;9.11;91.05;93180.25;4317176;33;20278;-66
2022/04/01 00:25:10;;;;;;;5.53;5.03;;;;;;;9.11;91.11;93174.97;4322188;32;20370;-65
2022/04/01 00:27:36;;;;;;;3.43;3.23;;;;;;;8.95;91.95;93174.88;4360279;32;20194;-66
2022/04/01 00:30:05;;;;;;;3.73;3.53;;;;;;;8.84;90.72;93181.75;4356901;32;20277;-66
2022/04/01 00:32:31;;;;;;;3.37;3.17;;;;;;;8.71;91.46;93178.38;4359185;32;20276;-66
2022/04/01 00:34:57;;;;;;;3.20;3.00;;;;;;;8.50;92.96;93180.41;4348674;32;20291;-66
2022/04/01 00:37:26;;;;;;;2.63;2.50;;;;;;;8.38;93.08;93180.41;4338028;32;20200;-66
2022/04/01 00:39:52;;;;;;;2.70;2.57;;;;;;;8.35;92.05;93176.53;4325658;32;20300;-66
2022/04/01 00:42:21;;;;;;;2.80;2.70;;;;;;;8.03;92.64;93183.47;4352318;32;20288;-66
2022/04/01 00:44:48;;;;;;;3.10;2.90;;;;;;;7.93;94.48;93182.03;4339212;32;20327;-66
2022/04/01 00:47:14;;;;;;;2.90;2.80;;;;;;;7.98;94.84;93178.41;4337646;32;20292;-66
2022/04/01 00:49:43;;;;;;;2.53;2.43;;;;;;;7.97;94.44;93176.09;4333846;32;20294;-61
2022/04/01 00:52:12;;;;;;;3.10;2.90;;;;;;;8.05;93.08;93177.88;4339381;32;20339;-65
2022/04/01 00:54:44;;;;;;;3.90;3.27;;;;;;;7.97;94.09;93179.50;4350124;32;20289;-65
2022/04/01 00:57:13;;;;;;;2.73;2.63;;;;;;;7.85;94.97;93179.50;4362373;32;20292;-66
2022/04/01 00:59:52;;;;;;;3.50;3.20;;;;;;;7.83;95.33;93171.91;4368258;32;20280;-66
2022/04/01 01:02:19;;;;;;;3.13;2.93;;;;;;;7.86;95.32;93175.75;4377694;32;20284;-66
2022/04/01 01:04:47;;;;;;;3.40;3.20;;;;;;;7.96;94.93;93175.31;4362665;32;20320;-66
2022/04/01 01:07:14;;;;;;;3.70;3.37;;;;;;;7.98;94.50;93178.41;4354830;32;20296;-66
2022/04/01 01:09:44;;;;;;;3.57;3.37;;;;;;;7.91;94.39;93164.97;4359965;32;20319;-66
2022/04/01 01:12:10;;;;;;;3.33;3.13;;;;;;;7.93;94.27;93170.69;4360454;32;20360;-66
2022/04/01 01:14:36;;;;;;;3.47;3.27;;;;;;;7.98;94.40;93167.84;4367574;32;20297;-66
2022/04/01 01:17:12;;;;;;;3.27;3.07;;;;;;;7.91;94.78;93157.03;4278557;32;20211;-66
2022/04/01 01:19:47;;;;;;;3.27;3.07;;;;;;;7.69;94.91;93162.78;4372227;32;20284;-65
2022/04/01 01:22:14;;;;;;;4.63;3.40;;;;;;;7.80;95.33;93158.59;4349835;32;20330;-66
2022/04/01 01:24:45;;;;;;;3.47;3.27;;;;;;;7.73;96.00;93158.34;4375816;32;20384;-66
2022/04/01 01:27:11;;;;;;;3.73;3.43;;;;;;;7.89;95.69;93154.00;4370382;32;20282;-66
2022/04/01 01:29:40;;;;;;;3.60;3.03;;;;;;;7.64;95.46;93157.69;4362072;32;20285;-66
2022/04/01 01:32:29;;;;;;;4.70;3.27;;;;;;;7.74;95.06;93155.41;4371185;32;20280;-67
2022/04/01 01:34:59;;;;;;;3.20;3.00;;;;;;;7.64;94.26;93155.84;4372007;32;20288;-66
2022/04/01 01:37:26;;;;;;;3.37;3.17;;;;;;;7.63;94.72;93151.66;4333645;32;20294;-66
2022/04/01 01:39:51;;;;;;;3.37;3.07;;;;;;;7.68;94.96;93150.69;4366178;32;20280;-66
2022/04/01 01:42:18;;;;;;;3.20;3.00;;;;;;;7.72;94.57;93148.91;4375845;32;20284;-66
2022/04/01 01:44:45;;;;;;;3.40;3.20;;;;;;;7.75;94.86;93142.97;4376822;32;20251;-66
2022/04/01 01:47:12;;;;;;;3.20;3.00;;;;;;;7.75;95.21;93138.47;4367078;32;20299;-66
2022/04/01 01:54:42;;;;;;;6.90;3.70;;;;;;;7.71;94.53;93142.09;4360320;32;20367;-61
2022/04/01 01:55:15;;;;;;;3.70;3.50;;;;;;;7.66;95.24;93134.41;4369273;32;20345;-66
2022/04/01 01:57:42;;;;;;;3.70;3.50;;;;;;;7.68;95.35;93143.53;4352726;32;20285;-65
2022/04/01 02:00:12;;;;;;;3.40;3.20;;;;;;;7.70;95.64;93141.31;4374517;32;20229;-64
2022/04/01 02:02:39;;;;;;;3.80;3.60;;;;;;;7.81;94.73;93136.38;4369220;32;20297;-61
2022/04/01 02:05:06;;;;;;;4.50;4.10;;;;;;;7.63;94.20;93135.06;4375530;32;20303;-67
2022/04/01 02:07:37;;;;;;;4.73;4.43;;;;;;;7.54;95.17;93133.28;4342421;32;20344;-66
2022/04/01 02:10:05;;;;;;;4.10;3.90;;;;;;;7.65;94.15;93128.34;4345742;32;20323;-66
2022/04/01 02:12:31;;;;;;;4.00;3.80;;;;;;;7.71;92.92;93139.44;4371414;32;20356;-66
2022/04/01 02:15:02;;;;;;;4.70;4.30;;;;;;;7.54;93.94;93132.50;4379190;32;20382;-67
2022/04/01 02:17:31;;;;;;;4.63;4.23;;;;;;;7.53;94.95;93130.97;4369203;32;20382;-66
2022/04/01 02:20:00;;;;;;;4.73;4.43;;;;;;;7.37;95.20;93137.97;4377414;32;20361;-66
2022/04/01 02:22:28;;;;;;;4.80;4.50;;;;;;;7.44;94.98;93138.22;4355486;32;20332;-66
2022/04/01 02:24:53;;;;;;;4.13;3.87;;;;;;;7.49;94.94;93135.34;4365277;32;20306;-66
2022/04/01 02:27:21;;;;;;;4.60;4.30;;;;;;;7.64;95.03;93136.59;4378208;32;20295;-66
2022/04/01 02:29:48;;;;;;;4.20;3.90;;;;;;;7.57;95.60;93132.63;4364665;32;20280;-66
2022/04/01 02:32:19;;;;;;;3.83;3.50;;;;;;;7.77;94.39;93130.22;4368991;32;20300;-66
2022/04/01 02:34:44;;;;;;;2.80;2.67;;;;;;;7.32;93.80;93131.03;4337913;32;20314;-66
2022/04/01 02:37:11;;;;;;;2.67;2.57;;;;;;;7.19;93.54;93138.16;4370545;32;20288;-66
2022/04/01 02:39:38;;;;;;;2.43;2.23;;;;;;;7.18;93.43;93146.38;4356940;32;20347;-66
2022/04/01 02:42:05;;;;;;;2.63;2.53;;;;;;;7.21;93.44;93145.75;4358629;32;20281;-66
2022/04/01 02:44:36;;;;;;;2.47;2.37;;;;;;;7.11;93.06;93146.91;4372852;32;20285;-66
2022/04/01 02:47:03;;;;;;;2.43;2.30;;;;;;;6.77;93.90;93150.63;4360574;32;20312;-66
2022/04/01 02:49:30;;;;;;;2.77;2.33;;;;;;;6.55;95.31;93158.84;4349028;32;20326;-66
2022/04/01 02:51:56;;;;;;;2.53;2.33;;;;;;;6.57;93.97;93158.53;4358831;32;20324;-66
2022/04/01 02:54:22;;;;;;;2.57;2.47;;;;;;;6.43;94.25;93161.44;4343025;32;20339;-66
2022/04/01 02:56:48;;;;;;;3.93;2.37;;;;;;;6.34;94.66;93160.69;4376086;32;20247;-66
2022/04/01 02:59:15;;;;;;;2.80;2.70;;;;;;;6.37;94.67;93158.22;4368084;32;20303;-66
2022/04/01 03:01:41;;;;;;;2.07;1.97;;;;;;;6.24;94.77;93161.06;4386628;32;20348;-65
2022/04/01 03:04:10;;;;;;;2.33;2.23;;;;;;;6.29;94.86;93159.03;4358670;32;20311;-66
2022/04/01 03:06:43;;;;;;;2.30;2.20;;;;;;;6.11;94.44;93158.34;4374309;32;20309;-66
2022/04/01 03:09:31;;;;;;;2.43;2.33;;;;;;;6.04;94.98;93154.66;4368410;32;20298;-66
2022/04/01 03:11:58;;;;;;;2.60;2.40;;;;;;;5.95;95.27;93154.75;4326272;32;20324;-66
2022/04/01 03:14:26;;;;;;;2.10;2.00;;;;;;;6.04;95.51;93160.72;4377429;32;20273;-67
2022/04/01 03:16:54;;;;;;;1.77;1.70;;;;;;;6.05;95.11;93157.00;4369169;32;20367;-66
2022/04/01 03:19:21;;;;;;;2.10;2.00;;;;;;;6.00;94.59;93157.19;4363411;32;20277;-67
2022/04/01 03:21:46;;;;;;;1.70;1.60;;;;;;;5.99;94.65;93166.19;4370026;32;20289;-66
2022/04/01 03:24:14;;;;;;;1.87;1.77;;;;;;;6.03;94.08;93164.44;4369259;32;20193;-67
2022/04/01 03:26:42;;;;;;;1.83;1.73;;;;;;;6.09;93.31;93165.78;4370510;32;20189;-65
2022/04/01 03:29:10;;;;;;;1.90;1.80;;;;;;;5.96;93.99;93166.81;4370552;32;20276;-66
2022/04/01 03:31:38;;;;;;;1.50;1.50;;;;;;;6.00;94.73;93166.94;4335804;32;20295;-66
2022/04/01 03:34:08;;;;;;;1.60;1.60;;;;;;;5.89;93.57;93166.50;4356864;32;20293;-67
2022/04/01 03:36:34;;;;;;;1.67;1.60;;;;;;;5.94;93.92;93168.22;4374136;32;20296;-67
2022/04/01 03:39:23;;;;;;;1.90;1.80;;;;;;;6.09;93.31;93165.03;4359695;32;20285;-66
2022/04/01 03:41:53;;;;;;;1.40;1.40;;;;;;;5.92;92.90;93165.88;4354584;32;20193;-67
2022/04/01 03:44:24;;;;;;;1.90;1.80;;;;;;;5.97;93.04;93167.56;4337058;32;20278;-66
2022/04/01 03:47:05;;;;;;;1.70;1.60;;;;;;;5.78;93.47;93170.56;4339051;32;20299;-66
2022/04/01 03:49:34;;;;;;;1.70;1.60;;;;;;;5.98;93.56;93166.50;4378938;32;20381;-65
2022/04/01 03:52:01;;;;;;;1.47;1.47;;;;;;;5.70;93.28;93168.75;4348884;32;20285;-65
2022/04/01 03:54:34;;;;;;;1.90;1.80;;;;;;;5.46;93.50;93175.31;4371377;32;20357;-65
2022/04/01 03:57:03;;;;;;;1.60;1.50;;;;;;;5.61;94.52;93173.28;4362538;32;20294;-66
2022/04/01 03:59:40;;;;;;;2.00;1.80;;;;;;;5.59;95.10;93164.94;4356099;32;20387;-66
2022/04/01 04:02:16;;;;;;;2.00;1.90;;;;;;;5.43;94.18;93167.28;4381340;32;20326;-66
2022/04/01 04:04:44;;;;;;;2.10;2.00;;;;;;;5.27;94.29;93177.53;4345173;32;20288;-65
2022/04/01 04:07:10;;;;;;;1.60;1.60;;;;;;;5.38;94.33;93178.75;4356514;32;20314;-65
2022/04/01 04:09:39;;;;;;;1.60;1.57;;;;;;;5.37;93.58;93182.47;4366347;32;20268;-66
2022/04/01 04:12:12;;;;;;;1.80;1.70;;;;;;;5.38;93.73;93186.63;4356619;32;20185;-66
2022/04/01 04:15:04;;;;;;;1.80;1.70;;;;;;;5.26;95.06;93175.97;4364830;32;20325;-65
2022/04/01 04:17:44;;;;;;;2.00;1.90;;;;;;;5.17;94.98;93177.88;4362248;32;20311;-66
2022/04/01 04:20:32;;;;;;;1.87;1.77;;;;;;;5.33;94.37;93186.03;4346947;32;20288;-66
2022/04/01 04:23:23;;;;;;;1.63;1.63;;;;;;;5.14;94.44;93184.53;4359751;32;20376;-66
2022/04/01 04:26:04;;;;;;;1.53;1.53;;;;;;;5.17;94.67;93188.38;4367468;32;20342;-66
2022/04/01 04:28:51;;;;;;;1.70;1.70;;;;;;;5.18;94.69;93179.41;4381607;32;20281;-66
2022/04/01 04:31:30;;;;;;;1.83;1.73;;;;;;;4.96;95.64;93187.47;4357782;32;20402;-65
2022/04/01 04:34:20;;;;;;;1.40;1.40;;;;;;;5.09;95.01;93189.16;4359281;32;20301;-66
2022/04/01 04:36:51;;;;;;;1.83;1.73;;;;;;;4.92;95.68;93186.56;4375375;32;20318;-66
2022/04/01 04:39:30;;;;;;;1.40;1.40;;;;;;;4.98;95.36;93187.94;4344523;32;20309;-66
2022/04/01 04:41:57;;;;;;;2.20;1.80;;;;;;;5.07;95.25;93199.97;4368769;32;20341;-66
2022/04/01 04:44:28;;;;;;;1.57;1.47;;;;;;;4.81;95.01;93197.34;4351922;32;20299;-66
2022/04/01 04:47:06;;;;;;;1.90;1.80;;;;;;;4.82;94.81;93201.53;4329436;32;20387;-66
2022/04/01 04:49:41;;;;;;;2.13;1.30;;;;;;;4.88;94.79;93196.91;4368762;32;20289;-66
2022/04/01 04:52:13;;;;;;;2.30;1.43;;;;;;;4.83;94.33;93200.44;4378317;32;20299;-66
2022/04/01 04:54:41;;;;;;;1.97;1.87;;;;;;;4.82;94.30;93201.53;4365276;32;20319;-65
2022/04/01 04:57:07;;;;;;;1.53;1.30;;;;;;;4.58;93.26;93211.72;4359740;32;20316;-66
2022/04/01 04:59:44;;;;;;;1.40;1.40;;;;;;;4.42;93.86;93213.25;4370676;32;20281;-67
2022/04/01 05:02:16;;;;;;;1.80;1.70;;;;;;;4.42;93.84;93215.88;4376178;32;20184;-65
2022/04/01 05:05:00;;;;;;;1.70;1.60;;;;;;;4.46;93.91;93216.81;4378069;32;20308;-65
2022/04/01 05:07:56;;;;;;;1.57;1.53;;;;;;;4.25;94.58;93213.22;4367894;32;20276;-68
2022/04/01 05:10:29;;;;;;;1.60;1.50;;;;;;;4.27;94.74;93219.69;4368815;32;20288;-66
2022/04/01 05:13:10;;;;;;;1.47;1.40;;;;;;;4.36;93.48;93217.87;4360384;32;20273;-67
2022/04/01 05:15:39;;;;;;;2.67;1.50;;;;;;;4.06;95.33;93229.97;4365691;32;20299;-66
2022/04/01 05:18:58;;;;;;;2.00;1.77;;;;;;;4.19;95.01;93232.78;4382480;32;20280;-66
2022/04/01 05:21:24;;;;;;;1.73;1.63;;;;;;;3.97;95.39;93244.12;4360058;32;20296;-66
2022/04/01 05:24:04;;;;;;;2.20;2.00;;;;;;;4.10;95.55;93240.66;4354391;32;20343;-66
2022/04/01 05:26:41;;;;;;;1.87;1.77;;;;;;;4.14;95.67;93250.25;4383193;32;20360;-66
2022/04/01 05:29:25;;;;;;;1.77;1.63;;;;;;;4.18;94.78;93247.75;4366558;32;20338;-66
2022/04/01 05:32:07;;;;;;;1.90;1.80;;;;;;;3.96;94.89;93250.44;4375148;32;20284;-66
2022/04/01 05:34:47;;;;;;;4.50;2.00;;;;;;;3.99;95.14;93245.38;4330845;32;20332;-66
2022/04/01 05:37:17;;;;;;;1.53;1.33;;;;;;;4.11;94.31;93248.22;4368077;32;20273;-66
2022/04/01 05:39:48;;;;;;;1.70;1.60;;;;;;;3.96;94.73;93253.84;4349303;32;20285;-66
2022/04/01 05:42:18;;;;;;;3.00;1.63;;;;;;;4.02;94.98;93257.91;4340030;32;20299;-66
2022/04/01 05:44:48;;;;;;;1.57;1.50;;;;;;;4.05;94.90;93254.66;4373912;32;20356;-66
2022/04/01 05:47:16;;;;;;;1.63;1.53;;;;;;;4.02;94.55;93254.50;4369619;32;20285;-66
2022/04/01 05:49:54;;;;;;;2.50;1.57;;;;;;;4.06;94.30;93256.22;4361543;32;20323;-64
2022/04/01 05:52:21;;;;;;;2.13;2.03;;;;;;;4.06;94.01;93255.44;4374402;32;20330;-67
2022/04/01 05:54:49;;;;;;;1.43;1.43;;;;;;;4.21;93.67;93256.88;4349638;32;20328;-66
2022/04/01 05:57:18;;;;;;;1.70;1.60;;;;;;;4.30;93.49;93265.56;4360684;32;20347;-66
2022/04/01 05:59:45;;;;;;;1.70;1.60;;;;;;;4.36;92.79;93259.88;4338826;32;20281;-65
2022/04/01 06:02:30;;;;;;;1.60;1.50;;;;;;;4.26;93.75;93259.38;4364581;32;20294;-64
2022/04/01 06:05:35;;;;;;;1.73;1.63;;;;;;;4.31;93.60;93274.97;4370767;32;20328;-66
2022/04/01 06:08:35;;;;;;;1.40;1.40;;;;;;;4.24;93.97;93264.16;4373715;32;20355;-67
2022/04/01 06:11:30;;;;;;;1.40;1.30;;;;;;;4.34;94.99;93274.38;4362167;32;20281;-63
2022/04/01 06:14:07;;;;;;;11.73;3.37;;;;;;;4.46;95.91;93270.06;4335980;32;20294;-62
2022/04/01 06:17:28;;;;;;;5.40;1.73;;;;;;;5.74;100.00;93266.97;4334773;32;20288;-62
2022/04/01 06:20:07;;;;;;;1.27;1.27;;;;;;;6.18;94.43;93268.41;4329756;32;20343;-61
2022/04/01 06:22:42;;;;;;;2.83;1.50;;;;;;;6.65;91.14;93271.72;4352722;32;20300;-62
2022/04/01 06:25:13;;;;;;;1.53;1.13;;;;;;;6.90;89.40;93270.03;4375953;32;20285;-61
2022/04/01 06:27:49;;;;;;;4.60;1.40;;;;;;;7.16;85.97;93280.41;4351822;32;20300;-62
2022/04/01 06:30:27;;;;;;;3.57;1.10;;;;;;;7.66;85.88;93282.16;4353066;32;20355;-62
2022/04/01 06:33:14;;;;;;;0.90;0.90;;;;;;;7.81;83.97;93268.34;4360375;32;20352;-62
2022/04/01 06:36:18;;;;;;;0.90;0.90;;;;;;;8.07;80.43;93270.72;4356865;32;20285;-61
2022/04/01 06:39:21;;;;;;;0.90;0.90;;;;;;;7.43;81.45;93274.59;4344464;32;20289;-61
2022/04/01 06:41:54;;;;;;;0.73;0.67;;;;;;;7.61;82.31;93285.78;4328814;32;20372;-61
2022/04/01 06:44:20;;;;;;;0.80;0.80;;;;;;;7.44;81.95;93281.41;4340926;32;20288;-61
2022/04/01 06:46:50;;;;;;;0.70;0.70;;;;;;;7.22;80.66;93294.94;4373487;32;20303;-62
2022/04/01 06:49:18;;;;;;;1.20;0.57;;;;;;;7.45;83.59;93295.38;4361423;32;20304;-61
2022/04/01 06:51:46;;;;;;;1.00;1.00;;;;;;;7.79;83.11;93297.69;4358953;32;20330;-61
2022/04/01 06:54:12;;;;;;;0.90;0.90;;;;;;;7.71;79.60;93287.22;4324236;32;20419;-61
2022/04/01 06:56:44;;;;;;;0.70;0.70;;;;;;;8.19;80.67;93297.91;4316451;32;20290;-61
2022/04/01 06:59:10;;;;;;;0.83;0.70;;;;;;;8.04;80.12;93287.97;4355694;32;20212;-61
2022/04/01 07:01:38;;;;;;;0.60;0.53;;;;;;;8.33;77.51;93294.19;4372023;32;20290;-61
2022/04/01 07:04:04;;;;;;;0.70;0.70;;;;;;;8.16;77.97;93290.62;4371505;32;20192;-62
2022/04/01 07:06:30;;;;;;;0.70;0.70;;;;;;;7.87;78.28;93296.09;4338140;32;20365;-61
2022/04/01 07:08:55;;;;;;;0.67;0.67;;;;;;;7.84;80.09;93299.38;4319063;32;20301;-61
2022/04/01 07:11:25;;;;;;;0.57;0.57;;;;;;;7.68;80.37;93290.53;4357123;32;20265;-61
2022/04/01 07:13:53;;;;;;;0.50;0.50;;;;;;;7.75;78.96;93296.81;4339432;32;20234;-62
2022/04/01 07:16:19;;;;;;;1.90;0.70;;;;;;;7.95;80.12;93289.94;4335247;32;20290;-62
2022/04/01 07:18:46;;;;;;;1.00;0.80;;;;;;;7.94;78.05;93302.34;4356108;32;20405;-61
2022/04/01 07:21:13;;;;;;;0.70;0.70;;;;;;;7.97;77.43;93302.81;4359309;32;20210;-62
2022/04/01 07:23:38;;;;;;;1.70;1.10;;;;;;;8.05;78.41;93297.44;4360940;32;20281;-61
2022/04/01 07:26:09;;;;;;;0.83;0.83;;;;;;;8.02;77.58;93295.47;4360173;32;20231;-61
2022/04/01 07:28:37;;;;;;;1.70;1.00;;;;;;;7.72;77.03;93301.97;4376159;32;20212;-62
2022/04/01 07:33:52;;;;;;;0.70;0.70;;;;;;;7.37;80.67;93304.91;4366400;32;20299;-62
2022/04/01 07:36:20;;;;;;;1.40;1.30;;;;;;;7.37;81.06;93307.53;4352964;32;20320;-62
2022/04/01 07:38:47;;;;;;;0.80;0.80;;;;;;;7.15;80.11;93310.50;4366504;32;20292;-62
2022/04/01 07:41:13;;;;;;;1.70;0.90;;;;;;;7.11;81.24;93306.94;4366672;32;20304;-62
2022/04/01 07:43:39;;;;;;;1.37;0.80;;;;;;;7.69;81.56;93303.38;4363507;32;20284;-59
2022/04/01 07:46:06;;;;;;;1.90;0.83;;;;;;;7.79;81.21;93296.94;4351668;32;20350;-62
2022/04/01 07:48:32;;;;;;;1.63;0.90;;;;;;;7.22;81.50;93313.41;4373462;32;20345;-62
2022/04/01 07:50:59;;;;;;;1.13;1.07;;;;;;;6.73;78.77;93310.44;4336740;32;20285;-62
2022/04/01 07:53:26;;;;;;;2.73;0.80;;;;;;;6.78;81.53;93312.91;4346856;32;20280;-65
2022/04/01 07:55:55;;;;;;;0.47;0.47;;;;;;;6.99;80.91;93315.56;4327418;32;20293;-65
2022/04/01 07:58:22;;;;;;;0.70;0.70;;;;;;;6.44;82.22;93319.09;4358221;32;20367;-65
2022/04/01 08:00:50;;;;;;;0.77;0.73;;;;;;;6.22;82.68;93322.00;4369597;32;20449;-65
2022/04/01 08:03:19;;;;;;;1.10;0.90;;;;;;;5.88;84.72;93317.53;4362691;32;20319;-65
2022/04/01 08:05:45;;;;;;;1.73;1.00;;;;;;;5.56;86.53;93332.00;4345575;32;20285;-65
2022/04/01 08:08:22;;;;;;;4.30;0.87;;;;;;;5.53;86.91;93336.00;4362301;32;20363;-65
2022/04/01 08:10:48;;;;;;;0.50;0.50;;;;;;;5.80;87.06;93328.88;4373849;32;20304;-65
2022/04/01 08:13:15;;;;;;;2.47;0.70;;;;;;;5.32;87.69;93336.94;4374093;32;20284;-65
2022/04/01 08:15:42;;;;;;;0.93;0.87;;;;;;;5.52;87.01;93334.47;4374142;32;20288;-64
2022/04/01 08:18:10;;;;;;;1.10;1.00;;;;;;;5.37;87.27;93334.94;4367203;32;20288;-65
2022/04/01 08:20:35;;;;;;;0.60;0.60;;;;;;;5.36;87.94;93338.66;4370912;32;20285;-66
2022/04/01 08:23:02;;;;;;;0.40;0.40;;;;;;;5.31;88.35;93338.03;4356734;32;20293;-65
2022/04/01 08:25:27;;;;;;;0.60;0.60;;;;;;;5.30;88.97;93342.50;4359218;32;20240;-64
2022/04/01 08:27:56;;;;;;;0.57;0.57;;;;;;;5.58;87.11;93353.50;4351801;32;20277;-65
2022/04/01 08:30:23;;;;;;;2.87;0.90;;;;;;;5.55;86.97;93348.06;4350126;32;20296;-65
2022/04/01 08:32:51;;;;;;;1.70;0.63;;;;;;;5.34;88.20;93340.03;4304453;32;20390;-65
2022/04/01 08:35:21;;;;;;;0.53;0.53;;;;;;;5.29;88.28;93350.69;4309918;33;20278;-64
2022/04/01 08:37:49;;;;;;;0.70;0.70;;;;;;;5.24;88.09;93348.22;4331829;33;20348;-67
2022/04/01 08:40:17;;;;;;;1.80;0.60;;;;;;;5.52;87.92;93352.88;4322959;32;20341;-65
2022/04/01 08:42:47;;;;;;;0.80;0.80;;;;;;;5.51;88.03;93353.94;4313483;32;20286;-65
2022/04/01 08:45:19;;;;;;;0.70;0.70;;;;;;;5.53;86.80;93353.66;4325244;32;20300;-64
2022/04/01 08:47:45;;;;;;;1.13;0.60;;;;;;;5.52;87.17;93367.88;4333042;32;20307;-65
2022/04/01 08:50:11;;;;;;;0.50;0.50;;;;;;;5.78;86.55;93359.97;4334255;32;20301;-65
2022/04/01 08:52:37;;;;;;;0.80;0.70;;;;;;;5.77;86.12;93350.53;4341174;32;20293;-64
2022/04/01 08:55:09;;;;;;;0.80;0.80;;;;;;;5.75;86.41;93365.84;4337875;32;20201;-64
2022/04/01 08:57:55;;;;;;;2.10;0.90;;;;;;;5.71;87.72;93367.56;4340724;32;20289;-65
2022/04/01 09:00:30;;;;;;;1.27;0.60;;;;;;;6.06;88.06;93363.03;4346619;32;20281;-65
2022/04/01 09:03:07;;;;;;;1.20;0.90;;;;;;;5.83;86.42;93363.19;4357770;32;20308;-66
2022/04/01 09:05:36;;;;;;;0.50;0.50;;;;;;;5.62;87.49;93374.66;4342463;32;20293;-66
2022/04/01 09:08:08;;;;;;;0.60;0.60;;;;;;;5.55;87.82;93371.75;4341489;32;20387;-65
2022/04/01 09:11:04;;;;;;;0.50;0.50;;;;;;;5.60;87.62;93374.22;4357722;32;20281;-65
2022/04/01 09:13:51;;;;;;;1.67;0.50;;;;;;;5.43;88.43;93381.00;4332564;32;20334;-68
2022/04/01 09:16:41;;;;;;;0.47;0.33;;;;;;;5.42;88.50;93384.72;4347388;32;20289;-67
2022/04/01 09:19:09;;;;;;;0.43;0.43;;;;;;;5.31;88.72;93386.13;4344839;32;20344;-64
2022/04/01 09:21:42;;;;;;;1.50;0.40;;;;;;;5.45;88.33;93383.31;4360360;32;20337;-66
2022/04/01 09:24:10;;;;;;;0.40;0.40;;;;;;;5.28;88.65;93389.34;4350195;32;20282;-67
2022/04/01 09:26:44;;;;;;;0.40;0.40;;;;;;;5.55;88.75;93377.78;4311987;32;20333;-66
2022/04/01 09:29:11;;;;;;;0.60;0.60;;;;;;;5.69;87.28;93382.88;4356518;32;20301;-67
2022/04/01 09:31:40;;;;;;;0.40;0.37;;;;;;;5.71;88.04;93378.06;4349049;32;20304;-67
2022/04/01 09:34:12;;;;;;;1.00;0.80;;;;;;;5.79;88.03;93377.31;4351149;32;20297;-65
2022/04/01 09:36:41;;;;;;;0.50;0.50;;;;;;;5.76;88.38;93385.81;4301173;33;20301;-66
2022/04/01 09:39:11;;;;;;;0.40;0.40;;;;;;;5.56;87.23;93392.47;4357624;32;20372;-65
2022/04/01 09:41:51;;;;;;;0.40;0.40;;;;;;;5.43;88.23;93396.78;4355568;32;20281;-64
2022/04/01 09:44:38;;;;;;;0.60;0.60;;;;;;;5.66;86.45;93391.38;4342438;32;20325;-65
2022/04/01 09:47:06;;;;;;;0.37;0.37;;;;;;;5.45;88.38;93388.59;4331853;32;20340;-67
2022/04/01 09:49:46;;;;;;;0.40;0.40;;;;;;;5.31;88.52;93401.09;4308056;33;20293;-66
2022/04/01 09:52:26;;;;;;;0.57;0.57;;;;;;;5.44;89.56;93403.59;4317574;32;20285;-61
2022/04/01 09:54:55;;;;;;;0.40;0.40;;;;;;;5.53;89.70;93398.34;4345345;32;20307;-64
2022/04/01 09:57:29;;;;;;;0.93;0.40;;;;;;;5.48;89.57;93399.25;4356886;32;20281;-65
2022/04/01 09:59:56;;;;;;;0.50;0.50;;;;;;;5.53;88.67;93396.50;4328456;32;20375;-65
2022/04/01 10:02:23;;;;;;;0.40;0.40;;;;;;;5.46;87.91;93404.06;4345857;32;20296;-65
2022/04/01 10:04:50;;;;;;;0.53;0.53;;;;;;;5.43;87.68;93412.56;4340495;32;20289;-65
2022/04/01 10:07:19;;;;;;;0.40;0.40;;;;;;;5.42;88.38;93399.72;4354551;32;20298;-65
2022/04/01 10:09:56;;;;;;;0.40;0.40;;;;;;;5.57;87.10;93401.91;4344587;32;20297;-66
2022/04/01 10:12:26;;;;;;;0.40;0.40;;;;;;;5.53;87.93;93401.75;4339411;32;20289;-65
2022/04/01 10:15:07;;;;;;;0.40;0.40;;;;;;;5.52;87.92;93396.81;4341083;32;20274;-65
2022/04/01 10:17:36;;;;;;;0.53;0.40;;;;;;;5.20;88.16;93402.50;4334248;32;20337;-65
2022/04/01 10:20:05;;;;;;;0.40;0.40;;;;;;;5.16;87.85;93412.84;4340660;32;20309;-65
2022/04/01 10:22:35;;;;;;;0.40;0.40;;;;;;;5.36;88.42;93409.63;4345987;32;20314;-65
2022/04/01 10:25:30;;;;;;;0.30;0.30;;;;;;;5.41;88.33;93413.94;4354445;32;20390;-65
2022/04/01 10:28:02;;;;;;;0.60;0.60;;;;;;;5.51;88.03;93417.06;4358716;32;20328;-65
2022/04/01 10:30:31;;;;;;;0.40;0.40;;;;;;;5.61;86.75;93415.22;4339811;32;20396;-65
2022/04/01 10:32:59;;;;;;;0.47;0.47;;;;;;;5.42;85.97;93420.75;4328608;32;20293;-65
2022/04/01 10:35:34;;;;;;;0.43;0.43;;;;;;;5.53;87.46;93417.53;4338628;32;20305;-65
2022/04/01 10:38:08;;;;;;;0.77;0.77;;;;;;;5.44;88.38;93424.63;4363222;32;20398;-65
2022/04/01 10:40:50;;;;;;;2.27;0.60;;;;;;;5.82;87.05;93424.78;4353340;32;20328;-65
2022/04/01 10:43:30;;;;;;;0.40;0.40;;;;;;;5.69;85.84;93430.22;4311764;32;20316;-65
2022/04/01 10:46:07;;;;;;;0.80;0.50;;;;;;;5.57;87.01;93422.19;4347615;32;20308;-65
2022/04/01 10:51:39;;;;;;;0.47;0.47;;;;;;;5.61;85.81;93423.84;4333444;32;20335;-66
2022/04/01 10:54:37;;;;;;;0.93;0.40;;;;;;;5.64;85.89;93422.47;4299756;32;20290;-65
2022/04/01 10:57:09;;;;;;;0.60;0.60;;;;;;;5.67;85.86;93429.75;4281135;33;20537;-65
2022/04/01 10:59:56;;;;;;;0.80;0.80;;;;;;;5.65;85.47;93429.28;4355157;32;20309;-65
2022/04/01 11:02:27;;;;;;;0.50;0.50;;;;;;;5.50;85.77;93433.91;4323795;32;20290;-65
2022/04/01 11:04:53;;;;;;;0.30;0.30;;;;;;;5.65;85.29;93429.28;4337334;32;20282;-65
2022/04/01 11:07:25;;;;;;;2.47;0.50;;;;;;;5.75;84.51;93431.63;4336310;32;20321;-65
2022/04/01 11:10:06;;;;;;;2.93;2.83;;;;;;;5.69;84.60;93435.47;4340856;32;20294;-64
2022/04/01 11:12:39;;;;;;;3.10;2.80;;;;;;;5.57;84.81;93437.97;4360051;32;20285;-65
2022/04/01 11:15:09;;;;;;;2.60;2.40;;;;;;;5.33;86.68;93433.13;4349880;32;20293;-66
2022/04/01 11:17:37;;;;;;;2.03;1.47;;;;;;;5.23;85.80;93441.28;4324973;32;20290;-66
2022/04/01 11:20:26;;;;;;;1.60;1.50;;;;;;;5.65;86.13;93439.81;4344837;32;20307;-66
2022/04/01 11:22:59;;;;;;;1.10;0.83;;;;;;;5.87;86.08;93437.03;4336187;32;20319;-66
2022/04/01 11:25:28;;;;;;;1.80;0.70;;;;;;;6.08;84.66;93437.19;4310462;32;20290;-64
2022/04/01 11:28:21;;;;;;;0.50;0.50;;;;;;;6.15;83.10;93435.66;4330727;32;20303;-65
2022/04/01 11:31:02;;;;;;;0.77;0.50;;;;;;;6.26;82.95;93438.72;4312333;32;20320;-65
2022/04/01 11:34:04;;;;;;;0.50;0.50;;;;;;;6.40;81.86;93435.94;4348538;32;20308;-65
2022/04/01 11:36:31;;;;;;;0.57;0.40;;;;;;;6.64;82.36;93435.41;4339121;32;21230;-66
2022/04/01 11:39:00;;;;;;;0.37;0.37;;;;;;;6.58;83.04;93432.16;4357236;32;20285;-66
2022/04/01 11:41:28;;;;;;;1.97;0.53;;;;;;;6.90;81.40;93431.56;4328245;32;20283;-66
2022/04/01 11:43:57;;;;;;;0.70;0.70;;;;;;;7.06;81.13;93442.38;4296281;33;20299;-66
2022/04/01 11:46:24;;;;;;;0.57;0.40;;;;;;;7.02;78.89;93443.31;4333550;32;20331;-66
2022/04/01 11:48:57;;;;;;;0.40;0.40;;;;;;;7.40;78.13;93436.13;4358269;32;20326;-66
2022/04/01 11:51:27;;;;;;;0.50;0.50;;;;;;;7.17;78.16;93438.28;4358216;32;20300;-66
2022/04/01 11:53:56;;;;;;;0.27;0.27;;;;;;;6.94;79.27;93444.91;4359427;32;20285;-66
2022/04/01 11:56:26;;;;;;;0.40;0.40;;;;;;;6.89;79.74;93447.69;4317831;32;20332;-66
2022/04/01 11:58:57;;;;;;;1.37;0.60;;;;;;;6.69;80.91;93446.53;4332800;32;20290;-66
2022/04/01 12:01:58;;;;;;;0.60;0.60;;;;;;;6.49;81.06;93452.47;4357117;32;20293;-67
2022/04/01 12:04:36;;;;;;;0.70;0.70;;;;;;;6.04;82.93;93450.19;4317885;32;20316;-66
2022/04/01 12:10:22;;;;;;;1.10;0.77;;;;;;;6.14;82.75;93444.63;4328923;32;20352;-66
2022/04/01 12:12:59;;;;;;;0.70;0.70;;;;;;;6.16;83.61;93453.00;4293209;33;20330;-67
2022/04/01 12:15:46;;;;;;;0.80;0.80;;;;;;;6.23;83.85;93455.16;4313440;32;20297;-66
2022/04/01 12:18:16;;;;;;;0.70;0.70;;;;;;;5.84;83.75;93456.06;4346558;32;20323;-66